sensor_id;sensor_type;location;lat;lon;timestamp;temperature;humidity
62991;DHT22;49084;48.204;16.202;2022-07-17T00:02:06;15.70;99.90
62991;DHT22;49084;48.204;16.202;2022-07-17T00:04:31;15.60;99.90
62991;DHT22;49084;48.204;16.202;2022-07-17T00:06:57;15.60;99.90
62991;DHT22;49084;48.204;16.202;2022-07-17T00:09:23;15.60;99.90
62991;DHT22;49084;48.204;16.202;2022-07-17T00:11:48;15.60;99.90
62991;DHT22;49084;48.204;16.202;2022-07-17T00:14:14;15.50;99.90
62991;DHT22;49084;48.204;16.202;2022-07-17T00:16:40;15.50;99.90
62991;DHT22;49084;48.204;16.202;2022-07-17T00:19:05;15.60;99.90
62991;DHT22;49084;48.204;16.202;2022-07-17T00:21:32;15.60;99.90
62991;DHT22;49084;48.204;16.202;2022-07-17T00:23:58;15.60;99.90
62991;DHT22;49084;48.204;16.202;2022-07-17T00:26:24;15.70;99.90
62991;DHT22;49084;48.204;16.202;2022-07-17T00:28:49;15.70;99.90
62991;DHT22;49084;48.204;16.202;2022-07-17T00:31:15;15.70;99.90
62991;DHT22;49084;48.204;16.202;2022-07-17T00:33:41;15.70;99.90
62991;DHT22;49084;48.204;16.202;2022-07-17T00:36:07;15.70;99.90
62991;DHT22;49084;48.204;16.202;2022-07-17T00:38:33;15.70;99.90
62991;DHT22;49084;48.204;16.202;2022-07-17T00:40:59;15.70;99.90
62991;DHT22;49084;48.204;16.202;2022-07-17T00:43:25;15.70;99.90
62991;DHT22;49084;48.204;16.202;2022-07-17T00:46:03;15.70;99.90
62991;DHT22;49084;48.204;16.202;2022-07-17T00:48:28;15.70;99.90
62991;DHT22;49084;48.204;16.202;2022-07-17T00:50:55;15.70;99.90
62991;DHT22;49084;48.204;16.202;2022-07-17T00:53:21;15.70;99.90
62991;DHT22;49084;48.204;16.202;2022-07-17T00:55:48;15.70;99.90
62991;DHT22;49084;48.204;16.202;2022-07-17T00:58:20;15.70;99.90
62991;DHT22;49084;48.204;16.202;2022-07-17T01:00:47;15.70;99.90
62991;DHT22;49084;48.204;16.202;2022-07-17T01:03:14;15.60;99.90
62991;DHT22;49084;48.204;16.202;2022-07-17T01:05:40;15.60;99.90
62991;DHT22;49084;48.204;16.202;2022-07-17T01:08:06;15.50;99.90
62991;DHT22;49084;48.204;16.202;2022-07-17T01:10:32;15.50;99.90
62991;DHT22;49084;48.204;16.202;2022-07-17T01:12:58;15.50;99.90
62991;DHT22;49084;48.204;16.202;2022-07-17T01:15:24;15.40;99.90
62991;DHT22;49084;48.204;16.202;2022-07-17T01:17:49;15.40;99.90
62991;DHT22;49084;48.204;16.202;2022-07-17T01:20:15;15.30;99.90
62991;DHT22;49084;48.204;16.202;2022-07-17T01:22:46;15.20;99.90
62991;DHT22;49084;48.204;16.202;2022-07-17T01:25:13;15.10;99.90
62991;DHT22;49084;48.204;16.202;2022-07-17T01:27:39;15.00;99.90
62991;DHT22;49084;48.204;16.202;2022-07-17T01:30:05;15.00;99.90
62991;DHT22;49084;48.204;16.202;2022-07-17T01:32:33;14.90;99.90
62991;DHT22;49084;48.204;16.202;2022-07-17T01:34:59;14.90;99.90
62991;DHT22;49084;48.204;16.202;2022-07-17T01:37:24;14.80;99.90
62991;DHT22;49084;48.204;16.202;2022-07-17T01:39:50;14.70;99.90
62991;DHT22;49084;48.204;16.202;2022-07-17T01:42:19;14.70;99.90
62991;DHT22;49084;48.204;16.202;2022-07-17T01:44:45;14.60;99.90
62991;DHT22;49084;48.204;16.202;2022-07-17T01:47:13;14.60;99.90
62991;DHT22;49084;48.204;16.202;2022-07-17T01:49:42;14.50;99.90
62991;DHT22;49084;48.204;16.202;2022-07-17T01:52:08;14.40;99.90
62991;DHT22;49084;48.204;16.202;2022-07-17T01:54:34;14.30;99.90
62991;DHT22;49084;48.204;16.202;2022-07-17T01:56:59;14.20;99.90
62991;DHT22;49084;48.204;16.202;2022-07-17T01:59:25;14.20;99.90
62991;DHT22;49084;48.204;16.202;2022-07-17T02:01:51;14.10;99.90
62991;DHT22;49084;48.204;16.202;2022-07-17T02:04:16;14.00;99.90
62991;DHT22;49084;48.204;16.202;2022-07-17T02:06:42;13.90;99.90
62991;DHT22;49084;48.204;16.202;2022-07-17T02:09:07;13.90;99.90
62991;DHT22;49084;48.204;16.202;2022-07-17T02:11:33;13.80;99.90
62991;DHT22;49084;48.204;16.202;2022-07-17T02:13:59;13.80;99.90
62991;DHT22;49084;48.204;16.202;2022-07-17T02:16:24;13.70;99.90
62991;DHT22;49084;48.204;16.202;2022-07-17T02:18:50;13.60;99.90
62991;DHT22;49084;48.204;16.202;2022-07-17T02:21:16;13.60;99.90
62991;DHT22;49084;48.204;16.202;2022-07-17T02:23:41;13.50;99.90
62991;DHT22;49084;48.204;16.202;2022-07-17T02:26:07;13.40;99.90
62991;DHT22;49084;48.204;16.202;2022-07-17T02:28:34;13.40;99.90
62991;DHT22;49084;48.204;16.202;2022-07-17T02:31:00;13.30;99.90
62991;DHT22;49084;48.204;16.202;2022-07-17T02:33:25;13.30;99.90
62991;DHT22;49084;48.204;16.202;2022-07-17T02:35:51;13.20;99.90
62991;DHT22;49084;48.204;16.202;2022-07-17T02:38:16;13.20;99.90
62991;DHT22;49084;48.204;16.202;2022-07-17T02:40:42;13.20;99.90
62991;DHT22;49084;48.204;16.202;2022-07-17T02:43:08;13.20;99.90
62991;DHT22;49084;48.204;16.202;2022-07-17T02:45:34;13.10;99.90
62991;DHT22;49084;48.204;16.202;2022-07-17T02:47:59;13.10;99.90
62991;DHT22;49084;48.204;16.202;2022-07-17T02:50:25;13.00;99.90
62991;DHT22;49084;48.204;16.202;2022-07-17T02:52:50;12.90;99.90
62991;DHT22;49084;48.204;16.202;2022-07-17T02:55:17;12.90;99.90
62991;DHT22;49084;48.204;16.202;2022-07-17T02:57:44;12.90;99.90
62991;DHT22;49084;48.204;16.202;2022-07-17T03:00:13;12.80;99.90
62991;DHT22;49084;48.204;16.202;2022-07-17T03:02:41;12.80;99.90
62991;DHT22;49084;48.204;16.202;2022-07-17T03:05:07;12.80;99.90
62991;DHT22;49084;48.204;16.202;2022-07-17T03:07:33;12.70;99.90
62991;DHT22;49084;48.204;16.202;2022-07-17T03:09:59;12.70;99.90
62991;DHT22;49084;48.204;16.202;2022-07-17T03:12:24;12.70;99.90
62991;DHT22;49084;48.204;16.202;2022-07-17T03:14:50;12.60;99.90
62991;DHT22;49084;48.204;16.202;2022-07-17T03:17:16;12.60;99.90
62991;DHT22;49084;48.204;16.202;2022-07-17T03:19:41;12.60;99.90
62991;DHT22;49084;48.204;16.202;2022-07-17T03:22:07;12.50;99.90
62991;DHT22;49084;48.204;16.202;2022-07-17T03:24:32;12.50;99.90
62991;DHT22;49084;48.204;16.202;2022-07-17T03:26:58;12.50;99.90
62991;DHT22;49084;48.204;16.202;2022-07-17T03:29:24;12.50;99.90
62991;DHT22;49084;48.204;16.202;2022-07-17T03:31:50;12.50;99.90
62991;DHT22;49084;48.204;16.202;2022-07-17T03:34:15;12.40;99.90
62991;DHT22;49084;48.204;16.202;2022-07-17T03:36:41;12.40;99.90
62991;DHT22;49084;48.204;16.202;2022-07-17T03:39:07;12.40;99.90
62991;DHT22;49084;48.204;16.202;2022-07-17T03:41:33;12.40;99.90
62991;DHT22;49084;48.204;16.202;2022-07-17T03:43:59;12.40;99.90
62991;DHT22;49084;48.204;16.202;2022-07-17T03:46:24;12.40;99.90
62991;DHT22;49084;48.204;16.202;2022-07-17T03:48:50;12.40;99.90
62991;DHT22;49084;48.204;16.202;2022-07-17T03:51:16;12.40;99.90
62991;DHT22;49084;48.204;16.202;2022-07-17T03:53:42;12.40;99.90
62991;DHT22;49084;48.204;16.202;2022-07-17T03:56:08;12.50;99.90
62991;DHT22;49084;48.204;16.202;2022-07-17T03:58:34;12.50;99.90
62991;DHT22;49084;48.204;16.202;2022-07-17T04:01:00;12.60;99.90
62991;DHT22;49084;48.204;16.202;2022-07-17T04:03:25;12.60;99.90
62991;DHT22;49084;48.204;16.202;2022-07-17T04:05:51;12.60;99.90
62991;DHT22;49084;48.204;16.202;2022-07-17T04:08:17;12.70;99.90
62991;DHT22;49084;48.204;16.202;2022-07-17T04:10:43;12.70;99.90
62991;DHT22;49084;48.204;16.202;2022-07-17T04:13:10;12.70;99.90
62991;DHT22;49084;48.204;16.202;2022-07-17T04:15:36;12.70;99.90
62991;DHT22;49084;48.204;16.202;2022-07-17T04:18:24;12.80;99.90
62991;DHT22;49084;48.204;16.202;2022-07-17T04:20:52;12.80;99.90
62991;DHT22;49084;48.204;16.202;2022-07-17T04:23:18;12.90;99.90
62991;DHT22;49084;48.204;16.202;2022-07-17T04:25:44;12.90;99.90
62991;DHT22;49084;48.204;16.202;2022-07-17T04:28:10;13.00;99.90
62991;DHT22;49084;48.204;16.202;2022-07-17T04:30:36;13.00;99.90
62991;DHT22;49084;48.204;16.202;2022-07-17T04:33:02;13.10;99.90
62991;DHT22;49084;48.204;16.202;2022-07-17T04:35:28;13.20;99.90
62991;DHT22;49084;48.204;16.202;2022-07-17T04:37:54;13.30;99.90
62991;DHT22;49084;48.204;16.202;2022-07-17T04:40:19;13.40;99.90
62991;DHT22;49084;48.204;16.202;2022-07-17T04:42:45;13.40;99.90
62991;DHT22;49084;48.204;16.202;2022-07-17T04:45:11;13.50;99.90
62991;DHT22;49084;48.204;16.202;2022-07-17T04:47:39;13.50;99.90
62991;DHT22;49084;48.204;16.202;2022-07-17T04:50:05;13.60;99.90
62991;DHT22;49084;48.204;16.202;2022-07-17T04:52:31;13.60;99.90
62991;DHT22;49084;48.204;16.202;2022-07-17T04:54:56;13.70;99.90
62991;DHT22;49084;48.204;16.202;2022-07-17T04:57:22;13.80;99.90
62991;DHT22;49084;48.204;16.202;2022-07-17T04:59:48;13.80;99.90
62991;DHT22;49084;48.204;16.202;2022-07-17T05:02:13;13.80;99.90
62991;DHT22;49084;48.204;16.202;2022-07-17T05:04:40;13.90;99.90
62991;DHT22;49084;48.204;16.202;2022-07-17T05:07:06;14.00;99.90
62991;DHT22;49084;48.204;16.202;2022-07-17T05:09:32;14.00;99.90
62991;DHT22;49084;48.204;16.202;2022-07-17T05:11:58;14.10;99.90
62991;DHT22;49084;48.204;16.202;2022-07-17T05:14:23;14.20;99.90
62991;DHT22;49084;48.204;16.202;2022-07-17T05:16:49;14.20;99.90
62991;DHT22;49084;48.204;16.202;2022-07-17T05:19:15;14.30;99.90
62991;DHT22;49084;48.204;16.202;2022-07-17T05:21:40;14.40;99.90
62991;DHT22;49084;48.204;16.202;2022-07-17T05:24:06;14.50;99.90
62991;DHT22;49084;48.204;16.202;2022-07-17T05:26:32;14.60;99.90
62991;DHT22;49084;48.204;16.202;2022-07-17T05:28:57;14.70;99.90
62991;DHT22;49084;48.204;16.202;2022-07-17T05:31:23;14.80;99.90
62991;DHT22;49084;48.204;16.202;2022-07-17T05:33:49;14.90;99.90
62991;DHT22;49084;48.204;16.202;2022-07-17T05:36:14;15.10;99.90
62991;DHT22;49084;48.204;16.202;2022-07-17T05:38:40;15.20;99.90
62991;DHT22;49084;48.204;16.202;2022-07-17T05:41:06;15.40;99.90
62991;DHT22;49084;48.204;16.202;2022-07-17T05:43:31;15.60;99.90
62991;DHT22;49084;48.204;16.202;2022-07-17T05:45:58;15.80;99.90
62991;DHT22;49084;48.204;16.202;2022-07-17T05:48:25;15.90;99.90
62991;DHT22;49084;48.204;16.202;2022-07-17T05:50:51;16.00;99.90
62991;DHT22;49084;48.204;16.202;2022-07-17T05:53:16;16.20;99.90
62991;DHT22;49084;48.204;16.202;2022-07-17T05:55:42;16.30;99.90
62991;DHT22;49084;48.204;16.202;2022-07-17T05:58:08;16.40;99.90
62991;DHT22;49084;48.204;16.202;2022-07-17T06:00:35;16.60;99.90
62991;DHT22;49084;48.204;16.202;2022-07-17T06:03:01;16.80;99.90
62991;DHT22;49084;48.204;16.202;2022-07-17T06:05:27;17.00;99.90
62991;DHT22;49084;48.204;16.202;2022-07-17T06:07:53;17.10;99.90
62991;DHT22;49084;48.204;16.202;2022-07-17T06:10:19;17.20;99.90
62991;DHT22;49084;48.204;16.202;2022-07-17T06:12:45;17.40;99.90
62991;DHT22;49084;48.204;16.202;2022-07-17T06:15:11;17.60;99.90
62991;DHT22;49084;48.204;16.202;2022-07-17T06:17:37;18.10;99.90
62991;DHT22;49084;48.204;16.202;2022-07-17T06:20:03;18.80;99.90
62991;DHT22;49084;48.204;16.202;2022-07-17T06:22:29;19.40;99.90
62991;DHT22;49084;48.204;16.202;2022-07-17T06:24:55;19.90;99.90
62991;DHT22;49084;48.204;16.202;2022-07-17T06:27:21;20.40;97.50
62991;DHT22;49084;48.204;16.202;2022-07-17T06:29:47;20.70;96.70
62991;DHT22;49084;48.204;16.202;2022-07-17T06:32:13;21.10;94.60
62991;DHT22;49084;48.204;16.202;2022-07-17T06:34:38;21.50;92.40
62991;DHT22;49084;48.204;16.202;2022-07-17T06:37:04;21.80;89.40
62991;DHT22;49084;48.204;16.202;2022-07-17T06:39:30;21.90;84.40
62991;DHT22;49084;48.204;16.202;2022-07-17T06:41:55;22.00;80.90
62991;DHT22;49084;48.204;16.202;2022-07-17T06:44:21;22.10;79.90
62991;DHT22;49084;48.204;16.202;2022-07-17T06:46:46;22.20;77.80
62991;DHT22;49084;48.204;16.202;2022-07-17T06:49:12;22.30;75.00
62991;DHT22;49084;48.204;16.202;2022-07-17T06:51:38;22.40;74.50
62991;DHT22;49084;48.204;16.202;2022-07-17T06:54:03;22.60;69.70
62991;DHT22;49084;48.204;16.202;2022-07-17T06:56:29;22.70;68.40
62991;DHT22;49084;48.204;16.202;2022-07-17T06:58:55;22.90;65.20
62991;DHT22;49084;48.204;16.202;2022-07-17T07:01:20;23.10;62.50
62991;DHT22;49084;48.204;16.202;2022-07-17T07:03:46;23.20;54.90
62991;DHT22;49084;48.204;16.202;2022-07-17T07:06:12;23.10;50.60
62991;DHT22;49084;48.204;16.202;2022-07-17T07:08:37;23.30;53.50
62991;DHT22;49084;48.204;16.202;2022-07-17T07:11:03;23.60;51.70
62991;DHT22;49084;48.204;16.202;2022-07-17T07:13:29;23.90;49.50
62991;DHT22;49084;48.204;16.202;2022-07-17T07:15:55;23.90;51.80
62991;DHT22;49084;48.204;16.202;2022-07-17T07:18:21;24.00;51.00
62991;DHT22;49084;48.204;16.202;2022-07-17T07:20:47;24.10;49.80
62991;DHT22;49084;48.204;16.202;2022-07-17T07:23:13;24.00;48.90
62991;DHT22;49084;48.204;16.202;2022-07-17T07:25:38;24.00;49.10
62991;DHT22;49084;48.204;16.202;2022-07-17T07:28:04;24.20;50.60
62991;DHT22;49084;48.204;16.202;2022-07-17T07:30:30;24.40;51.20
62991;DHT22;49084;48.204;16.202;2022-07-17T07:32:56;24.40;49.00
62991;DHT22;49084;48.204;16.202;2022-07-17T07:35:22;24.40;49.30
62991;DHT22;49084;48.204;16.202;2022-07-17T07:37:48;24.50;49.70
62991;DHT22;49084;48.204;16.202;2022-07-17T07:40:14;24.40;50.10
62991;DHT22;49084;48.204;16.202;2022-07-17T07:42:39;24.60;48.10
62991;DHT22;49084;48.204;16.202;2022-07-17T07:45:06;24.60;49.50
62991;DHT22;49084;48.204;16.202;2022-07-17T07:47:31;24.90;47.80
62991;DHT22;49084;48.204;16.202;2022-07-17T07:49:57;25.20;47.50
62991;DHT22;49084;48.204;16.202;2022-07-17T07:52:23;25.10;48.10
62991;DHT22;49084;48.204;16.202;2022-07-17T07:54:49;25.20;47.40
62991;DHT22;49084;48.204;16.202;2022-07-17T07:57:14;25.20;47.50
62991;DHT22;49084;48.204;16.202;2022-07-17T07:59:40;25.40;45.70
62991;DHT22;49084;48.204;16.202;2022-07-17T08:02:06;25.50;46.10
62991;DHT22;49084;48.204;16.202;2022-07-17T08:04:32;25.80;45.30
62991;DHT22;49084;48.204;16.202;2022-07-17T08:06:58;26.20;44.80
62991;DHT22;49084;48.204;16.202;2022-07-17T08:09:24;26.40;42.80
62991;DHT22;49084;48.204;16.202;2022-07-17T08:11:49;26.30;43.30
62991;DHT22;49084;48.204;16.202;2022-07-17T08:14:15;26.50;42.40
62991;DHT22;49084;48.204;16.202;2022-07-17T08:16:41;26.60;42.30
62991;DHT22;49084;48.204;16.202;2022-07-17T08:19:06;26.30;43.40
62991;DHT22;49084;48.204;16.202;2022-07-17T08:21:32;26.30;43.50
62991;DHT22;49084;48.204;16.202;2022-07-17T08:23:57;26.60;42.80
62991;DHT22;49084;48.204;16.202;2022-07-17T08:26:23;26.50;42.80
62991;DHT22;49084;48.204;16.202;2022-07-17T08:28:49;26.10;43.70
62991;DHT22;49084;48.204;16.202;2022-07-17T08:31:15;26.30;42.20
62991;DHT22;49084;48.204;16.202;2022-07-17T08:33:40;26.70;43.00
62991;DHT22;49084;48.204;16.202;2022-07-17T08:36:06;26.80;42.00
62991;DHT22;49084;48.204;16.202;2022-07-17T08:38:33;27.30;42.50
62991;DHT22;49084;48.204;16.202;2022-07-17T08:40:58;27.90;41.60
62991;DHT22;49084;48.204;16.202;2022-07-17T08:43:24;27.90;41.30
62991;DHT22;49084;48.204;16.202;2022-07-17T08:45:51;28.20;41.10
62991;DHT22;49084;48.204;16.202;2022-07-17T08:48:17;28.40;40.90
62991;DHT22;49084;48.204;16.202;2022-07-17T08:50:45;28.20;40.60
